Time;durP1;ratioP1;P1;durP2;ratioP2;P2;SDS_P1;SDS_P2;PMS_P1;PMS_P2;Temp;Humidity;BMP_temperature;BMP_pressure;BME280_temperature;BME280_humidity;BME280_pressure;Samples;Min_cycle;Max_cycle;Signal;HPM_P1;HPM_P2
2023/05/29 00:01:28;;;;;;;13.88;4.22;;;;;;;;;;4919487;29;20051;-65
2023/05/29 00:03:56;;;;;;;14.07;4.47;;;;;;;;;;4907357;29;20056;-62
2023/05/29 00:06:21;;;;;;;10.13;3.78;;;;;;;;;;4907796;29;20442;-64
2023/05/29 00:08:51;;;;;;;14.30;4.32;;;;;;;;;;4889522;29;20505;-62
2023/05/29 00:11:17;;;;;;;16.33;4.55;;;;;;;;;;4910776;29;20519;-61
2023/05/29 00:13:43;;;;;;;21.35;4.55;;;;;;;;;;4907449;29;20056;-61
2023/05/29 00:16:09;;;;;;;15.32;4.75;;;;;;;;;;4907697;29;20456;-61
2023/05/29 00:18:45;;;;;;;18.10;4.53;;;;;;;;;;4908445;29;20074;-62
2023/05/29 00:21:14;;;;;;;12.15;4.60;;;;;;;;;;4904758;29;20502;-61
2023/05/29 00:23:40;;;;;;;12.05;3.97;;;;;;;;;;4908274;29;20339;-63
2023/05/29 00:26:06;;;;;;;16.65;4.55;;;;;;;;;;4910949;29;20428;-62
2023/05/29 00:28:36;;;;;;;16.35;4.65;;;;;;;;;;4904426;29;20052;-60
2023/05/29 00:31:02;;;;;;;14.50;4.40;;;;;;;;;;4906807;29;20489;-61
2023/05/29 00:33:28;;;;;;;10.05;3.92;;;;;;;;;;4901947;29;20322;-60
2023/05/29 00:35:55;;;;;;;14.32;4.70;;;;;;;;;;4903303;29;20112;-63
2023/05/29 00:38:21;;;;;;;14.52;4.78;;;;;;;;;;4907062;29;20053;-61
2023/05/29 00:40:47;;;;;;;18.25;4.50;;;;;;;;;;4909391;29;20067;-61
2023/05/29 00:43:14;;;;;;;17.00;5.15;;;;;;;;;;4900998;29;20405;-61
2023/05/29 00:45:41;;;;;;;13.45;5.57;;;;;;;;;;4907359;29;20088;-60
2023/05/29 00:48:08;;;;;;;15.15;5.63;;;;;;;;;;4901344;29;20056;-62
2023/05/29 00:50:34;;;;;;;16.58;5.18;;;;;;;;;;4913675;29;20588;-61
2023/05/29 00:53:01;;;;;;;13.82;5.32;;;;;;;;;;4907665;29;20068;-62
2023/05/29 00:55:29;;;;;;;14.60;5.00;;;;;;;;;;4907274;29;20060;-61
2023/05/29 00:57:57;;;;;;;19.13;4.97;;;;;;;;;;4910312;29;20083;-62
2023/05/29 01:00:24;;;;;;;16.27;5.43;;;;;;;;;;4916415;29;20488;-63
2023/05/29 01:02:52;;;;;;;14.85;5.00;;;;;;;;;;4910859;29;20059;-62
2023/05/29 01:05:19;;;;;;;18.15;4.65;;;;;;;;;;4912312;29;20075;-61
2023/05/29 01:07:48;;;;;;;17.17;5.05;;;;;;;;;;4910706;29;20520;-60
2023/05/29 01:10:16;;;;;;;15.20;5.22;;;;;;;;;;4911991;29;20138;-60
2023/05/29 01:13:10;;;;;;;14.40;5.00;;;;;;;;;;4912154;29;20056;-60
2023/05/29 01:15:43;;;;;;;14.00;4.77;;;;;;;;;;4910930;29;20143;-61
2023/05/29 01:18:19;;;;;;;15.88;4.95;;;;;;;;;;4912144;29;20298;-61
2023/05/29 01:20:54;;;;;;;13.30;4.95;;;;;;;;;;4915616;29;20063;-61
2023/05/29 01:23:34;;;;;;;13.18;5.07;;;;;;;;;;4908969;29;20052;-60
2023/05/29 01:26:38;;;;;;;14.73;4.68;;;;;;;;;;4910374;29;20270;-61
2023/05/29 01:29:07;;;;;;;15.05;4.75;;;;;;;;;;4906893;29;20493;-62
2023/05/29 01:31:34;;;;;;;19.05;5.50;;;;;;;;;;4911553;29;20424;-60
2023/05/29 01:34:00;;;;;;;15.63;5.50;;;;;;;;;;4907924;29;20100;-63
2023/05/29 01:36:27;;;;;;;15.38;5.32;;;;;;;;;;4911358;29;20116;-61
2023/05/29 01:38:57;;;;;;;10.40;4.40;;;;;;;;;;4902130;29;20064;-63
2023/05/29 01:41:24;;;;;;;16.80;5.60;;;;;;;;;;4910803;29;20653;-62
2023/05/29 01:43:51;;;;;;;14.93;5.35;;;;;;;;;;4919011;29;20112;-61
2023/05/29 01:46:18;;;;;;;15.63;5.43;;;;;;;;;;4908778;29;20524;-60
2023/05/29 01:48:45;;;;;;;14.85;4.88;;;;;;;;;;4903324;29;20404;-61
2023/05/29 01:51:12;;;;;;;17.17;5.47;;;;;;;;;;4912841;29;20060;-60
2023/05/29 01:53:39;;;;;;;15.35;5.32;;;;;;;;;;4908610;29;20512;-61
2023/05/29 01:56:07;;;;;;;18.67;5.20;;;;;;;;;;4909522;29;20048;-60
2023/05/29 01:58:38;;;;;;;8.77;5.03;;;;;;;;;;4907638;29;20052;-61
2023/05/29 02:01:06;;;;;;;16.45;5.28;;;;;;;;;;4911723;29;20261;-63
2023/05/29 02:03:33;;;;;;;13.60;5.43;;;;;;;;;;4907330;29;20048;-61
2023/05/29 02:06:02;;;;;;;9.52;4.47;;;;;;;;;;4911571;29;20052;-62
2023/05/29 02:08:29;;;;;;;8.45;3.65;;;;;;;;;;4906809;29;20060;-61
2023/05/29 02:10:55;;;;;;;10.30;3.67;;;;;;;;;;4913057;29;20059;-61
2023/05/29 02:13:21;;;;;;;11.20;3.65;;;;;;;;;;4909527;29;20412;-61
2023/05/29 02:15:47;;;;;;;9.25;3.33;;;;;;;;;;4912651;29;20150;-62
2023/05/29 02:18:15;;;;;;;9.93;3.50;;;;;;;;;;4906647;29;20063;-63
2023/05/29 02:20:41;;;;;;;8.77;3.42;;;;;;;;;;4901851;29;20978;-60
2023/05/29 02:23:10;;;;;;;6.15;3.45;;;;;;;;;;4909752;29;20070;-61
2023/05/29 02:25:36;;;;;;;9.52;3.35;;;;;;;;;;4914140;29;20052;-61
2023/05/29 02:28:03;;;;;;;6.05;2.92;;;;;;;;;;4909943;29;20064;-61
2023/05/29 02:30:29;;;;;;;6.60;3.25;;;;;;;;;;4927944;29;20466;-59
2023/05/29 02:32:57;;;;;;;8.75;3.05;;;;;;;;;;4908208;29;20043;-62
2023/05/29 02:35:26;;;;;;;8.93;2.85;;;;;;;;;;4907990;29;20855;-61
2023/05/29 02:37:52;;;;;;;6.00;3.03;;;;;;;;;;4907424;29;20061;-62
2023/05/29 02:40:20;;;;;;;5.25;2.90;;;;;;;;;;4913790;29;20052;-61
2023/05/29 02:42:47;;;;;;;4.50;2.92;;;;;;;;;;4909679;29;20056;-62
2023/05/29 02:45:13;;;;;;;5.43;2.95;;;;;;;;;;4925670;29;20060;-61
2023/05/29 02:47:39;;;;;;;9.68;2.80;;;;;;;;;;4908228;29;20243;-62
2023/05/29 02:50:05;;;;;;;8.43;2.95;;;;;;;;;;4909453;29;20512;-60
2023/05/29 02:52:32;;;;;;;5.85;2.80;;;;;;;;;;4908709;29;20793;-61
2023/05/29 02:55:02;;;;;;;6.18;2.90;;;;;;;;;;4909504;29;20068;-62
2023/05/29 02:57:28;;;;;;;6.80;3.17;;;;;;;;;;4909337;29;20405;-61
2023/05/29 02:59:54;;;;;;;7.78;2.88;;;;;;;;;;4908926;29;20047;-60
2023/05/29 03:02:21;;;;;;;6.70;3.08;;;;;;;;;;4906341;29;20060;-60
2023/05/29 03:04:49;;;;;;;7.45;3.03;;;;;;;;;;4913460;29;20394;-63
2023/05/29 03:07:16;;;;;;;4.63;3.05;;;;;;;;;;4909284;29;20044;-68
2023/05/29 03:09:43;;;;;;;5.47;2.97;;;;;;;;;;4907507;29;20056;-61
2023/05/29 03:12:09;;;;;;;7.05;3.28;;;;;;;;;;4900269;29;20066;-60
2023/05/29 03:14:36;;;;;;;6.72;2.63;;;;;;;;;;4907683;29;21304;-61
2023/05/29 03:17:07;;;;;;;8.52;3.30;;;;;;;;;;4908265;29;20045;-60
2023/05/29 03:19:34;;;;;;;7.32;3.60;;;;;;;;;;4910790;29;20045;-62
2023/05/29 03:22:01;;;;;;;4.45;2.80;;;;;;;;;;4911596;29;20548;-61
2023/05/29 03:24:27;;;;;;;7.65;3.05;;;;;;;;;;4905303;29;20064;-60
2023/05/29 03:26:53;;;;;;;6.63;3.05;;;;;;;;;;4906156;29;20063;-61
2023/05/29 03:29:19;;;;;;;6.75;2.90;;;;;;;;;;4907334;29;20048;-61
2023/05/29 03:31:45;;;;;;;5.60;3.08;;;;;;;;;;4910659;29;20405;-61
2023/05/29 03:34:11;;;;;;;5.93;2.85;;;;;;;;;;4909354;29;20518;-63
2023/05/29 03:36:37;;;;;;;6.38;3.10;;;;;;;;;;4906357;29;20052;-61
2023/05/29 03:39:03;;;;;;;7.32;3.10;;;;;;;;;;4908210;29;20565;-61
2023/05/29 03:41:30;;;;;;;6.45;3.10;;;;;;;;;;4911589;29;20059;-61
2023/05/29 03:43:56;;;;;;;8.20;3.28;;;;;;;;;;4907818;29;20060;-62
2023/05/29 03:46:22;;;;;;;7.50;3.20;;;;;;;;;;4910931;29;20048;-62
2023/05/29 03:48:48;;;;;;;10.43;3.38;;;;;;;;;;4905650;29;20055;-60
2023/05/29 03:51:16;;;;;;;8.10;3.33;;;;;;;;;;4910717;29;20071;-59
2023/05/29 03:53:43;;;;;;;5.90;3.08;;;;;;;;;;4905922;29;20048;-63
2023/05/29 03:56:09;;;;;;;9.07;3.25;;;;;;;;;;4912429;29;20064;-59
2023/05/29 03:58:36;;;;;;;8.50;3.92;;;;;;;;;;4907064;29;20156;-64
2023/05/29 04:01:02;;;;;;;10.30;3.78;;;;;;;;;;4906465;29;20045;-61
2023/05/29 04:03:29;;;;;;;5.30;3.20;;;;;;;;;;4908471;29;20136;-61
2023/05/29 04:05:55;;;;;;;7.30;3.38;;;;;;;;;;4908904;29;20056;-63
2023/05/29 04:08:21;;;;;;;8.70;3.67;;;;;;;;;;4908721;29;20059;-62
2023/05/29 04:10:48;;;;;;;12.90;4.15;;;;;;;;;;4909531;29;20052;-64
2023/05/29 04:13:15;;;;;;;8.80;3.90;;;;;;;;;;4917222;29;20075;-61
2023/05/29 04:15:42;;;;;;;14.27;3.85;;;;;;;;;;4911235;29;20036;-61
2023/05/29 04:18:07;;;;;;;8.23;4.18;;;;;;;;;;4914043;29;20484;-61
2023/05/29 04:20:34;;;;;;;8.88;3.67;;;;;;;;;;4911780;29;20056;-62
2023/05/29 04:23:00;;;;;;;9.55;3.70;;;;;;;;;;4911299;29;20056;-61
2023/05/29 04:25:26;;;;;;;11.15;4.20;;;;;;;;;;4914856;29;20051;-60
2023/05/29 04:27:52;;;;;;;8.32;4.10;;;;;;;;;;4909081;29;20056;-64
2023/05/29 04:30:19;;;;;;;9.25;4.35;;;;;;;;;;4908025;29;20047;-61
2023/05/29 04:32:46;;;;;;;11.02;4.80;;;;;;;;;;4907652;29;20055;-62
2023/05/29 04:35:13;;;;;;;10.20;4.07;;;;;;;;;;4908294;29;20080;-62
2023/05/29 04:37:39;;;;;;;10.70;4.80;;;;;;;;;;4907481;29;20111;-63
2023/05/29 04:40:10;;;;;;;10.65;5.70;;;;;;;;;;4911625;29;20048;-60
2023/05/29 04:42:37;;;;;;;13.48;5.90;;;;;;;;;;4909305;29;20052;-59
2023/05/29 04:45:06;;;;;;;17.85;6.40;;;;;;;;;;4906576;29;20076;-60
2023/05/29 04:47:33;;;;;;;14.30;6.00;;;;;;;;;;4906603;29;20052;-62
2023/05/29 04:50:00;;;;;;;17.10;6.30;;;;;;;;;;4909977;29;20056;-67
2023/05/29 04:52:28;;;;;;;14.30;6.20;;;;;;;;;;4913003;29;20436;-63
2023/05/29 04:54:56;;;;;;;13.60;6.38;;;;;;;;;;4914107;29;20497;-61
2023/05/29 04:57:22;;;;;;;14.18;6.22;;;;;;;;;;4912655;29;20052;-63
2023/05/29 04:59:48;;;;;;;15.48;6.35;;;;;;;;;;4910205;29;20044;-65
2023/05/29 05:02:55;;;;;;;11.95;6.05;;;;;;;;;;4901553;29;20055;-61
2023/05/29 05:06:34;;;;;;;12.80;5.85;;;;;;;;;;4911412;29;20048;-62
2023/05/29 05:10:16;;;;;;;17.02;5.75;;;;;;;;;;4911009;29;20051;-63
2023/05/29 05:13:56;;;;;;;16.80;6.18;;;;;;;;;;4912689;29;20055;-64
2023/05/29 05:17:38;;;;;;;18.13;5.80;;;;;;;;;;4914430;29;20084;-63
2023/05/29 05:21:18;;;;;;;16.35;5.30;;;;;;;;;;4911758;29;20127;-67
2023/05/29 05:25:00;;;;;;;15.13;5.32;;;;;;;;;;4908674;29;20055;-64
2023/05/29 05:28:04;;;;;;;7.10;4.57;;;;;;;;;;4907603;29;20051;-62
2023/05/29 05:31:11;;;;;;;17.50;5.47;;;;;;;;;;4912172;29;20059;-65
2023/05/29 05:34:51;;;;;;;17.98;5.47;;;;;;;;;;4906484;29;20062;-63
2023/05/29 05:38:32;;;;;;;12.52;5.13;;;;;;;;;;4910980;29;20432;-61
2023/05/29 05:42:12;;;;;;;14.55;5.22;;;;;;;;;;4908994;29;20072;-62
2023/05/29 05:45:54;;;;;;;11.38;5.30;;;;;;;;;;4906616;29;20556;-61
2023/05/29 05:49:34;;;;;;;12.77;5.35;;;;;;;;;;4908136;29;20048;-61
2023/05/29 05:53:20;;;;;;;9.45;4.80;;;;;;;;;;4910916;29;20512;-60
2023/05/29 05:56:57;;;;;;;14.70;5.93;;;;;;;;;;4908353;29;20576;-61
2023/05/29 06:00:37;;;;;;;16.63;5.75;;;;;;;;;;4909346;29;20044;-61
2023/05/29 06:04:21;;;;;;;12.27;5.82;;;;;;;;;;4904955;29;20044;-62
2023/05/29 06:08:02;;;;;;;15.88;6.55;;;;;;;;;;4910664;29;20862;-63
2023/05/29 06:11:43;;;;;;;16.05;6.32;;;;;;;;;;4903860;29;20051;-63
2023/05/29 06:15:23;;;;;;;16.23;6.50;;;;;;;;;;4909830;29;20051;-62
2023/05/29 06:19:04;;;;;;;15.82;6.65;;;;;;;;;;4908831;29;20058;-63
2023/05/29 06:22:49;;;;;;;16.73;5.95;;;;;;;;;;4904048;29;20043;-63
2023/05/29 06:26:26;;;;;;;20.65;6.68;;;;;;;;;;4913529;29;20405;-63
2023/05/29 06:30:06;;;;;;;16.00;6.70;;;;;;;;;;4903120;29;20052;-64
2023/05/29 06:33:46;;;;;;;20.85;6.85;;;;;;;;;;4900495;29;20107;-63
2023/05/29 06:37:26;;;;;;;22.15;9.40;;;;;;;;;;4907973;29;20066;-64
2023/05/29 06:41:06;;;;;;;20.52;7.57;;;;;;;;;;4904422;29;20491;-63
2023/05/29 06:44:48;;;;;;;24.52;6.93;;;;;;;;;;4901737;29;20136;-66
2023/05/29 06:48:29;;;;;;;21.20;7.40;;;;;;;;;;4897835;29;20059;-62
2023/05/29 06:52:10;;;;;;;19.60;6.70;;;;;;;;;;4900847;29;20064;-62
2023/05/29 06:55:50;;;;;;;15.82;6.10;;;;;;;;;;4901221;29;20044;-62
2023/05/29 06:59:30;;;;;;;20.58;7.18;;;;;;;;;;4902429;29;20060;-61
2023/05/29 07:03:12;;;;;;;16.58;6.75;;;;;;;;;;4903045;29;20096;-63
2023/05/29 07:06:53;;;;;;;20.85;7.63;;;;;;;;;;4909595;29;20112;-62
2023/05/29 07:10:35;;;;;;;20.98;7.07;;;;;;;;;;4908441;29;20054;-70
2023/05/29 07:14:15;;;;;;;20.55;6.85;;;;;;;;;;4907031;29;20055;-66
2023/05/29 07:17:57;;;;;;;18.70;6.28;;;;;;;;;;4912460;29;20052;-70
2023/05/29 07:21:37;;;;;;;22.17;7.10;;;;;;;;;;4910043;29;20512;-67
2023/05/29 07:25:19;;;;;;;21.20;7.47;;;;;;;;;;4912920;29;20055;-66
2023/05/29 07:28:59;;;;;;;19.48;7.93;;;;;;;;;;4900534;29;20162;-68
2023/05/29 07:32:40;;;;;;;20.38;7.68;;;;;;;;;;4907816;29;20050;-67
2023/05/29 07:36:20;;;;;;;22.70;8.30;;;;;;;;;;4900102;29;20064;-65
2023/05/29 07:40:00;;;;;;;18.27;8.30;;;;;;;;;;4906316;29;20106;-66
2023/05/29 07:43:41;;;;;;;22.55;8.40;;;;;;;;;;4913967;29;20654;-67
2023/05/29 07:47:21;;;;;;;22.52;9.85;;;;;;;;;;4909590;29;20505;-69
2023/05/29 07:51:01;;;;;;;24.25;9.13;;;;;;;;;;4906835;29;20367;-65
2023/05/29 07:54:43;;;;;;;22.88;9.25;;;;;;;;;;4907383;29;20048;-66
2023/05/29 07:58:23;;;;;;;25.23;9.27;;;;;;;;;;4899056;29;20396;-68
2023/05/29 08:02:04;;;;;;;22.60;9.80;;;;;;;;;;4898081;29;20521;-67
2023/05/29 08:05:44;;;;;;;21.40;9.38;;;;;;;;;;4906133;29;20054;-69
2023/05/29 08:09:25;;;;;;;26.50;10.65;;;;;;;;;;4899223;29;20457;-66
2023/05/29 08:13:05;;;;;;;19.88;10.43;;;;;;;;;;4904960;29;20062;-67
2023/05/29 08:16:46;;;;;;;27.88;10.48;;;;;;;;;;4904229;29;20052;-67
2023/05/29 08:20:26;;;;;;;29.02;11.13;;;;;;;;;;4906746;29;20135;-66
2023/05/29 08:24:06;;;;;;;27.45;11.63;;;;;;;;;;4909105;29;20496;-66
2023/05/29 08:27:47;;;;;;;25.67;10.18;;;;;;;;;;4907311;29;20051;-65
2023/05/29 08:31:27;;;;;;;29.58;12.77;;;;;;;;;;4911087;29;20057;-66
2023/05/29 08:35:08;;;;;;;33.88;12.57;;;;;;;;;;4903145;29;20060;-66
2023/05/29 08:38:49;;;;;;;26.17;12.70;;;;;;;;;;4899998;29;20095;-66
2023/05/29 08:42:50;;;;;;;31.27;12.63;;;;;;;;;;4904595;29;20572;-64
2023/05/29 08:46:30;;;;;;;34.88;13.20;;;;;;;;;;4903447;29;20037;-66
2023/05/29 08:50:10;;;;;;;42.60;15.43;;;;;;;;;;4903793;29;20048;-67
2023/05/29 08:53:52;;;;;;;28.67;14.35;;;;;;;;;;4902112;29;20553;-67
2023/05/29 08:57:33;;;;;;;32.42;14.25;;;;;;;;;;4903304;29;20123;-67
2023/05/29 09:01:13;;;;;;;30.85;13.55;;;;;;;;;;4900353;29;20040;-66
2023/05/29 09:04:54;;;;;;;27.38;12.65;;;;;;;;;;4901131;29;20371;-67
2023/05/29 09:08:34;;;;;;;31.30;13.55;;;;;;;;;;4898710;29;20064;-66
2023/05/29 09:12:14;;;;;;;24.25;11.43;;;;;;;;;;4909072;29;20106;-66
2023/05/29 09:15:58;;;;;;;26.95;12.38;;;;;;;;;;4910442;29;20122;-69
2023/05/29 09:19:42;;;;;;;21.45;11.07;;;;;;;;;;4907977;29;20059;-68
2023/05/29 09:23:21;;;;;;;25.67;11.48;;;;;;;;;;4911191;29;20484;-67
2023/05/29 09:27:11;;;;;;;23.15;10.32;;;;;;;;;;4912764;29;20072;-70
2023/05/29 09:30:52;;;;;;;25.40;9.95;;;;;;;;;;4911615;29;20487;-68
2023/05/29 09:34:13;;;;;;;24.75;9.75;;;;;;;;;;4911341;29;20071;-66
2023/05/29 09:37:56;;;;;;;20.48;9.35;;;;;;;;;;4912105;29;20036;-66
2023/05/29 09:41:35;;;;;;;26.33;9.98;;;;;;;;;;4917393;29;20048;-65
2023/05/29 09:45:14;;;;;;;21.23;8.52;;;;;;;;;;4907831;29;20040;-64
2023/05/29 09:48:58;;;;;;;20.70;9.32;;;;;;;;;;4911140;29;20653;-66
2023/05/29 09:52:39;;;;;;;22.60;9.60;;;;;;;;;;4910473;29;20068;-68
2023/05/29 09:56:21;;;;;;;27.95;9.40;;;;;;;;;;4915333;29;20062;-65
2023/05/29 10:00:00;;;;;;;24.33;9.57;;;;;;;;;;4904979;29;20055;-65
2023/05/29 10:03:42;;;;;;;24.70;9.25;;;;;;;;;;4907512;29;20048;-65
2023/05/29 10:07:25;;;;;;;19.38;8.55;;;;;;;;;;4906014;29;20060;-65
2023/05/29 10:11:09;;;;;;;17.17;8.85;;;;;;;;;;4908906;29;20055;-65
2023/05/29 10:14:47;;;;;;;23.85;8.82;;;;;;;;;;4906052;29;20571;-64
2023/05/29 10:18:40;;;;;;;19.27;9.13;;;;;;;;;;4908566;29;20048;-65
2023/05/29 10:22:21;;;;;;;25.45;8.07;;;;;;;;;;4904040;29;20162;-64
2023/05/29 10:26:04;;;;;;;20.52;8.45;;;;;;;;;;4908855;29;20052;-64
2023/05/29 10:29:49;;;;;;;23.80;8.00;;;;;;;;;;4907401;29;20040;-69
2023/05/29 10:33:10;;;;;;;17.98;7.53;;;;;;;;;;4908666;29;20052;-65
2023/05/29 10:36:10;;;;;;;16.98;6.60;;;;;;;;;;4906311;29;20154;-68
2023/05/29 10:39:51;;;;;;;13.48;6.57;;;;;;;;;;4902728;29;20550;-67
2023/05/29 10:42:57;;;;;;;16.17;6.25;;;;;;;;;;4904213;29;20060;-67
2023/05/29 10:45:35;;;;;;;18.20;6.47;;;;;;;;;;4906023;29;20048;-67
2023/05/29 10:48:10;;;;;;;14.60;6.60;;;;;;;;;;4907870;29;20111;-65
2023/05/29 10:50:42;;;;;;;23.45;6.60;;;;;;;;;;4901944;29;20057;-67
2023/05/29 10:53:16;;;;;;;18.75;7.05;;;;;;;;;;4908646;29;20110;-65
2023/05/29 10:55:45;;;;;;;16.27;6.50;;;;;;;;;;4909313;29;20076;-67
2023/05/29 10:58:18;;;;;;;19.00;7.20;;;;;;;;;;4905907;29;20134;-68
2023/05/29 11:00:47;;;;;;;26.58;6.80;;;;;;;;;;4904068;29;20512;-66
2023/05/29 11:03:23;;;;;;;15.88;7.15;;;;;;;;;;4905223;29;20059;-67
2023/05/29 11:06:10;;;;;;;17.00;7.93;;;;;;;;;;4909729;29;20075;-66
2023/05/29 11:08:45;;;;;;;20.90;8.38;;;;;;;;;;4907502;29;20134;-68
2023/05/29 11:11:15;;;;;;;19.23;8.20;;;;;;;;;;4905089;29;20243;-68
2023/05/29 11:13:51;;;;;;;16.50;7.38;;;;;;;;;;4904317;29;20103;-66
2023/05/29 11:16:32;;;;;;;20.13;8.63;;;;;;;;;;4907771;29;20048;-68
2023/05/29 11:19:03;;;;;;;21.05;8.57;;;;;;;;;;4907082;29;20084;-68
2023/05/29 11:21:50;;;;;;;22.52;8.35;;;;;;;;;;4902085;29;20537;-68
2023/05/29 11:24:27;;;;;;;20.98;7.93;;;;;;;;;;4906012;29;20060;-67
2023/05/29 11:26:55;;;;;;;18.75;8.60;;;;;;;;;;4905933;29;20054;-66
2023/05/29 11:29:23;;;;;;;21.27;9.75;;;;;;;;;;4907466;29;20520;-65
2023/05/29 11:31:58;;;;;;;26.48;9.75;;;;;;;;;;4903773;29;20107;-66
2023/05/29 11:34:27;;;;;;;;;;;;;;;;;;4904094;29;20516;-64
2023/05/29 11:36:53;;;;;;;20.35;9.13;;;;;;;;;;4908788;29;19923;-66
2023/05/29 11:39:19;;;;;;;17.92;8.95;;;;;;;;;;4911953;29;20052;-65
2023/05/29 11:41:50;;;;;;;20.85;9.63;;;;;;;;;;4906992;29;20127;-66
2023/05/29 11:44:16;;;;;;;23.92;10.02;;;;;;;;;;4899066;29;20091;-66
2023/05/29 11:46:42;;;;;;;25.67;9.48;;;;;;;;;;4908536;29;20048;-68
2023/05/29 11:49:08;;;;;;;22.35;9.98;;;;;;;;;;4906607;29;20135;-66
2023/05/29 11:51:34;;;;;;;24.35;9.15;;;;;;;;;;4906045;29;20048;-66
2023/05/29 11:54:00;;;;;;;22.98;9.23;;;;;;;;;;4899208;29;20056;-66
2023/05/29 11:56:28;;;;;;;21.20;8.98;;;;;;;;;;4908743;29;20060;-68
2023/05/29 11:58:56;;;;;;;23.10;9.50;;;;;;;;;;4906706;29;20040;-66
2023/05/29 12:01:24;;;;;;;25.63;10.30;;;;;;;;;;4906136;29;20049;-67
2023/05/29 12:03:51;;;;;;;25.35;10.27;;;;;;;;;;4905341;29;20055;-66
2023/05/29 12:06:38;;;;;;;20.63;8.95;;;;;;;;;;4905427;29;20140;-66
2023/05/29 12:09:05;;;;;;;18.73;8.60;;;;;;;;;;4907702;29;20074;-67
2023/05/29 12:11:34;;;;;;;22.38;9.35;;;;;;;;;;4908115;29;20048;-66
2023/05/29 12:14:01;;;;;;;25.30;9.82;;;;;;;;;;4907656;29;20072;-66
2023/05/29 12:16:30;;;;;;;18.75;9.20;;;;;;;;;;4906817;29;20333;-67
2023/05/29 12:18:56;;;;;;;23.27;11.63;;;;;;;;;;4904229;29;20056;-68
2023/05/29 12:21:24;;;;;;;24.85;11.10;;;;;;;;;;4908268;29;20056;-67
2023/05/29 12:23:53;;;;;;;24.42;11.68;;;;;;;;;;4909531;29;20072;-67
2023/05/29 12:26:23;;;;;;;23.13;11.77;;;;;;;;;;4907939;29;20056;-68
2023/05/29 12:28:51;;;;;;;27.83;12.05;;;;;;;;;;4920098;29;22478;-70
2023/05/29 12:31:31;;;;;;;27.95;13.10;;;;;;;;;;4905130;29;20318;-65
2023/05/29 12:34:08;;;;;;;23.67;13.15;;;;;;;;;;4904057;29;20055;-68
2023/05/29 12:36:37;;;;;;;28.95;13.43;;;;;;;;;;4905684;29;20139;-70
2023/05/29 12:39:10;;;;;;;28.17;13.02;;;;;;;;;;4889761;29;20080;-69
2023/05/29 12:41:37;;;;;;;25.13;11.38;;;;;;;;;;4908425;29;20059;-69
2023/05/29 12:44:06;;;;;;;30.50;12.80;;;;;;;;;;4907417;29;20111;-67
2023/05/29 12:46:37;;;;;;;23.65;11.00;;;;;;;;;;4910104;29;20524;-67
2023/05/29 12:49:13;;;;;;;23.50;10.90;;;;;;;;;;4911329;29;20061;-68
2023/05/29 12:51:43;;;;;;;22.98;11.43;;;;;;;;;;4913225;29;20091;-66
2023/05/29 12:54:13;;;;;;;21.75;10.70;;;;;;;;;;4909847;29;20123;-65
2023/05/29 12:56:40;;;;;;;21.27;9.10;;;;;;;;;;4910662;29;20123;-65
2023/05/29 12:59:07;;;;;;;21.80;8.40;;;;;;;;;;4904793;29;20084;-66
2023/05/29 13:01:37;;;;;;;21.67;8.40;;;;;;;;;;4910443;29;20253;-67
2023/05/29 13:04:06;;;;;;;17.98;7.20;;;;;;;;;;4908600;29;20485;-65
2023/05/29 13:06:34;;;;;;;22.23;6.78;;;;;;;;;;4908467;29;20501;-66
2023/05/29 13:09:00;;;;;;;18.05;7.40;;;;;;;;;;4906221;29;20044;-66
2023/05/29 13:11:26;;;;;;;16.92;5.78;;;;;;;;;;4910103;29;20184;-69
2023/05/29 13:13:54;;;;;;;12.40;4.97;;;;;;;;;;4908749;29;20719;-69
2023/05/29 13:16:20;;;;;;;14.77;4.47;;;;;;;;;;4910401;29;20060;-67
2023/05/29 13:18:47;;;;;;;14.15;4.90;;;;;;;;;;4908703;29;20048;-68
2023/05/29 13:21:14;;;;;;;16.55;4.03;;;;;;;;;;4913863;29;20048;-69
2023/05/29 13:23:40;;;;;;;16.38;4.28;;;;;;;;;;4908278;29;20264;-69
2023/05/29 13:26:06;;;;;;;11.60;3.90;;;;;;;;;;4909800;29;20051;-69
2023/05/29 13:28:33;;;;;;;13.07;3.88;;;;;;;;;;4908027;29;20104;-70
2023/05/29 13:30:59;;;;;;;19.65;4.00;;;;;;;;;;4914066;29;20048;-67
2023/05/29 13:33:26;;;;;;;12.13;3.40;;;;;;;;;;4906510;29;20044;-65
2023/05/29 13:35:53;;;;;;;12.43;3.20;;;;;;;;;;4911482;29;20052;-69
2023/05/29 13:38:22;;;;;;;11.70;3.20;;;;;;;;;;4906553;29;20058;-67
2023/05/29 13:40:52;;;;;;;12.63;2.58;;;;;;;;;;4912402;29;20048;-68
2023/05/29 13:43:17;;;;;;;14.30;3.22;;;;;;;;;;4908852;29;20059;-67
2023/05/29 13:45:46;;;;;;;12.30;3.03;;;;;;;;;;4910368;29;20060;-68
2023/05/29 13:48:13;;;;;;;9.85;2.63;;;;;;;;;;4905874;29;20040;-70
2023/05/29 13:50:40;;;;;;;9.73;2.47;;;;;;;;;;4912337;29;20044;-67
2023/05/29 13:53:07;;;;;;;8.18;2.30;;;;;;;;;;4907801;29;20397;-67
2023/05/29 13:55:34;;;;;;;14.98;3.40;;;;;;;;;;4911522;29;20068;-69
2023/05/29 13:58:00;;;;;;;12.13;3.00;;;;;;;;;;4905992;29;20056;-68
2023/05/29 14:00:26;;;;;;;10.15;3.28;;;;;;;;;;4893653;29;20044;-69
2023/05/29 14:02:54;;;;;;;12.32;2.75;;;;;;;;;;4906754;29;20497;-65
2023/05/29 14:05:23;;;;;;;14.32;2.47;;;;;;;;;;4910404;29;20103;-71
2023/05/29 14:07:50;;;;;;;10.60;2.92;;;;;;;;;;4910124;29;20056;-66
2023/05/29 14:10:16;;;;;;;12.77;2.63;;;;;;;;;;4925075;29;20067;-67
2023/05/29 14:12:42;;;;;;;10.43;2.35;;;;;;;;;;4908849;29;20111;-71
2023/05/29 14:15:10;;;;;;;10.63;2.78;;;;;;;;;;4915854;29;20062;-67
2023/05/29 14:17:35;;;;;;;8.65;2.80;;;;;;;;;;4908598;29;20142;-69
2023/05/29 14:20:04;;;;;;;8.52;2.42;;;;;;;;;;4908812;29;20489;-67
2023/05/29 14:22:30;;;;;;;11.43;4.10;;;;;;;;;;4907589;29;20049;-68
2023/05/29 14:24:59;;;;;;;9.27;2.90;;;;;;;;;;4909773;29;20048;-67
2023/05/29 14:27:25;;;;;;;12.40;2.60;;;;;;;;;;4909637;29;20048;-70
2023/05/29 14:29:51;;;;;;;7.05;2.47;;;;;;;;;;4902964;29;20380;-68
2023/05/29 14:32:17;;;;;;;10.30;2.70;;;;;;;;;;4907348;29;20058;-67
2023/05/29 14:34:43;;;;;;;10.38;2.90;;;;;;;;;;4906614;29;20063;-66
2023/05/29 14:37:08;;;;;;;10.68;3.00;;;;;;;;;;4906709;29;20390;-67
2023/05/29 14:39:35;;;;;;;9.55;3.47;;;;;;;;;;4910539;29;20051;-69
2023/05/29 14:42:02;;;;;;;9.23;3.15;;;;;;;;;;4905377;29;20039;-68
2023/05/29 14:44:36;;;;;;;10.60;2.70;;;;;;;;;;4908672;29;20056;-68
2023/05/29 14:47:01;;;;;;;11.38;2.65;;;;;;;;;;4921906;29;20048;-69
2023/05/29 14:49:33;;;;;;;10.88;2.85;;;;;;;;;;4904868;29;20067;-68
2023/05/29 14:51:59;;;;;;;8.73;3.17;;;;;;;;;;4909016;29;20136;-69
2023/05/29 14:54:27;;;;;;;10.38;2.92;;;;;;;;;;4902194;29;20152;-67
2023/05/29 14:57:34;;;;;;;8.93;2.80;;;;;;;;;;4907727;29;20107;-67
2023/05/29 15:01:14;;;;;;;8.60;2.85;;;;;;;;;;4907998;29;20049;-69
2023/05/29 15:04:17;;;;;;;13.00;2.90;;;;;;;;;;4900778;29;20056;-67
2023/05/29 15:06:45;;;;;;;14.02;3.30;;;;;;;;;;4906232;29;20437;-67
2023/05/29 15:09:11;;;;;;;9.50;2.70;;;;;;;;;;4905289;29;20509;-66
2023/05/29 15:11:42;;;;;;;8.57;2.60;;;;;;;;;;4904553;29;20059;-67
2023/05/29 15:14:08;;;;;;;8.73;2.60;;;;;;;;;;4906960;29;20058;-69
2023/05/29 15:16:35;;;;;;;7.18;2.50;;;;;;;;;;4889245;29;20123;-66
2023/05/29 15:19:00;;;;;;;9.10;2.80;;;;;;;;;;4900144;29;20044;-65
2023/05/29 15:21:27;;;;;;;10.48;2.58;;;;;;;;;;4909686;29;20040;-66
2023/05/29 15:23:52;;;;;;;8.68;2.80;;;;;;;;;;4907066;29;20127;-68
2023/05/29 15:26:19;;;;;;;6.65;2.00;;;;;;;;;;4908691;29;20067;-66
2023/05/29 15:28:46;;;;;;;8.27;2.28;;;;;;;;;;4907135;29;20052;-65
2023/05/29 15:31:13;;;;;;;11.75;2.67;;;;;;;;;;4912026;29;20108;-67
2023/05/29 15:33:40;;;;;;;7.95;2.80;;;;;;;;;;4905131;29;20075;-67
2023/05/29 15:36:08;;;;;;;9.13;2.20;;;;;;;;;;4907695;29;20582;-66
2023/05/29 15:38:34;;;;;;;8.15;2.20;;;;;;;;;;4909232;29;20147;-66
2023/05/29 15:41:00;;;;;;;9.45;2.65;;;;;;;;;;4907344;29;20040;-68
2023/05/29 15:43:26;;;;;;;6.72;1.98;;;;;;;;;;4906493;29;20416;-71
2023/05/29 15:46:33;;;;;;;9.05;2.67;;;;;;;;;;4903487;29;20068;-67
2023/05/29 15:50:13;;;;;;;9.40;3.08;;;;;;;;;;4906315;29;20049;-68
2023/05/29 15:53:54;;;;;;;7.25;2.20;;;;;;;;;;4901725;29;20044;-68
2023/05/29 15:57:35;;;;;;;9.23;2.47;;;;;;;;;;4907932;29;20375;-69
2023/05/29 16:01:17;;;;;;;8.80;2.75;;;;;;;;;;4904034;29;20083;-67
2023/05/29 16:04:58;;;;;;;8.63;2.72;;;;;;;;;;4905779;29;20048;-69
2023/05/29 16:08:41;;;;;;;9.82;2.58;;;;;;;;;;4906638;29;20084;-68
2023/05/29 16:12:21;;;;;;;10.20;2.60;;;;;;;;;;4911289;29;20080;-68
2023/05/29 16:16:03;;;;;;;11.48;2.78;;;;;;;;;;4912635;29;20048;-69
2023/05/29 16:19:45;;;;;;;7.85;2.63;;;;;;;;;;4911625;29;20235;-67
2023/05/29 16:23:25;;;;;;;10.77;2.50;;;;;;;;;;4911311;29;20056;-69
2023/05/29 16:27:06;;;;;;;9.45;3.30;;;;;;;;;;4912135;29;20542;-67
2023/05/29 16:30:42;;;;;;;8.23;2.50;;;;;;;;;;4908761;29;20055;-68
2023/05/29 16:33:08;;;;;;;7.28;2.60;;;;;;;;;;4906998;29;20095;-69
2023/05/29 16:35:34;;;;;;;7.28;2.70;;;;;;;;;;4912154;29;20413;-67
2023/05/29 16:38:00;;;;;;;8.60;2.90;;;;;;;;;;4905632;29;20056;-68
2023/05/29 16:40:26;;;;;;;5.78;2.55;;;;;;;;;;4913675;29;20520;-68
2023/05/29 16:42:52;;;;;;;10.60;2.58;;;;;;;;;;4910758;29;20117;-67
2023/05/29 16:45:20;;;;;;;11.85;3.22;;;;;;;;;;4911944;29;20056;-67
2023/05/29 16:47:46;;;;;;;12.10;3.03;;;;;;;;;;4909324;29;20490;-68